Погода Масанчина 2 недели

Жамбылская область, Казахстан

23 июля-05 августа
  • 23июля
    Сегодня
    +23°
    +37°
    Облачно с прояснениями
    ВремяПогодаТемператураВлажностьДавлениеВетер, м/сВероятность осадков
    02:00Ясно и безоблачно+23°C55 %701 мм1.5 м/с2 %
    05:00Ясно и безоблачно+20°C59 %700 мм1.9 м/с2 %
    08:00Ясно и безоблачно+29°C38 %702 мм0.5 м/с2 %
    11:00Практически безоблачно+35°C25 %702 мм1.7 м/с1 %
    14:00Облачно с прояснениями+36°C22 %701 мм4.7 м/с17 %
    17:00Облачно с прояснениями+35°C31 %702 мм4.3 м/с28 %
    20:00Облачно с прояснениями+30°C48 %702 мм3.9 м/с36 %
    23:00Практически безоблачно+26°C62 %701 мм2.3 м/с10 %
  • 24июля
    Среда
    +24°
    +37°
    Практически безоблачно
    ВремяПогодаТемператураВлажностьДавлениеВетер, м/сВероятность осадков
    02:00Ясно и безоблачно+25°C64 %701 мм2.5 м/с2 %
    05:00Практически безоблачно+24°C61 %701 мм2.6 м/с2 %
    08:00Ясно и безоблачно+30°C39 %701 мм3.5 м/с2 %
    11:00Ясно и безоблачно+35°C26 %701 мм0.9 м/с3 %
    14:00Практически безоблачно+37°C22 %700 мм1.8 м/с7 %
    17:00Практически безоблачно+33°C23 %699 мм1.4 м/с6 %
    20:00Ясно и безоблачно+30°C32 %699 мм2.1 м/с1 %
    23:00Ясно и безоблачно+28°C45 %699 мм2.3 м/с2 %
  • 25июля
    Четверг
    +26°
    +40°
    Небольшая облачность
    ВремяПогодаТемператураВлажностьДавлениеВетер, м/сВероятность осадков
    02:00Ясно и безоблачно+26°C48 %699 мм2.2 м/с2 %
    05:00Ясно и безоблачно+24°C50 %699 мм2.5 м/с2 %
    08:00Ясно и безоблачно+31°C35 %700 мм1.2 м/с2 %
    11:00Ясно и безоблачно+36°C22 %700 мм1.0 м/с2 %
    14:00Небольшая облачность+39°C19 %700 мм2.3 м/с3 %
    17:00Практически безоблачно+40°C22 %700 мм2.7 м/с7 %
    20:00Ясно и безоблачно+33°C33 %701 мм2.9 м/с2 %
    23:00Ясно и безоблачно+30°C44 %701 мм2.2 м/с2 %
  • 26июля
    Пятница
    +27°
    +39°
    Ясно и безоблачно
    ВремяПогодаТемператураВлажностьДавлениеВетер, м/сВероятность осадков
    02:00Ясно и безоблачно+29°C43 %700 мм3.3 м/с2 %
    05:00Ясно и безоблачно+27°C45 %700 мм3.1 м/с2 %
    08:00Ясно и безоблачно+33°C31 %701 мм2.4 м/с2 %
    11:00Ясно и безоблачно+38°C18 %701 мм0.8 м/с2 %
    14:00Ясно и безоблачно+38°C15 %701 мм2.5 м/с2 %
    17:00Ясно и безоблачно+37°C15 %701 мм3.0 м/с2 %
    20:00Ясно и безоблачно+34°C28 %702 мм2.0 м/с2 %
    23:00Ясно и безоблачно+30°C35 %702 мм2.1 м/с2 %
  • 27июля
    Суббота
    +22°
    +40°
    Ясно и безоблачно
    ВремяПогодаТемператураВлажностьДавлениеВетер, м/сВероятность осадков
    02:00Ясно и безоблачно+31°C30 %701 мм3.9 м/с2 %
    05:00Ясно и безоблачно+28°C32 %701 мм3.7 м/с2 %
    08:00Ясно и безоблачно+33°C25 %703 мм2.9 м/с2 %
    11:00Ясно и безоблачно+36°C20 %703 мм3.9 м/с2 %
    14:00Ясно и безоблачно+40°C15 %703 мм3.3 м/с2 %
    17:00Ясно и безоблачно+39°C16 %702 мм2.5 м/с2 %
    20:00Ясно и безоблачно+35°C28 %703 мм2.0 м/с2 %
    23:00Ясно и безоблачно+31°C35 %703 мм1.2 м/с2 %
Мы используем cookies
Соглашаюсь